Time;durP1;ratioP1;P1;durP2;ratioP2;P2;SDS_P1;SDS_P2;PMS_P1;PMS_P2;Temp;Humidity;BMP_temperature;BMP_pressure;BME280_temperature;BME280_humidity;BME280_pressure;Samples;Min_cycle;Max_cycle;Signal;HPM_P1;HPM_P2
2023/09/11 00:01:13;;;;;;;;;23.33;20.67;;;;;;;;5092826;27;45479;-81
2023/09/11 00:03:39;;;;;;;;;31.00;28.00;;;;;;;;5089521;27;45952;-79
2023/09/11 00:06:04;;;;;;;;;38.67;32.00;;;;;;;;5083459;27;45522;-79
2023/09/11 00:08:30;;;;;;;;;27.33;25.33;;;;;;;;5064586;27;45891;-78
2023/09/11 00:10:56;;;;;;;;;30.33;27.00;;;;;;;;5089150;27;45796;-78
2023/09/11 00:13:21;;;;;;;;;35.33;32.33;;;;;;;;5086216;27;46418;-79
2023/09/11 00:15:47;;;;;;;;;33.33;29.33;;;;;;;;5071692;27;47937;-78
2023/09/11 00:18:12;;;;;;;;;28.33;24.67;;;;;;;;5089902;27;45805;-78
2023/09/11 00:20:37;;;;;;;;;29.67;27.67;;;;;;;;5091488;27;45525;-78
2023/09/11 00:23:03;;;;;;;;;26.33;23.00;;;;;;;;5094940;27;45318;-77
2023/09/11 00:25:28;;;;;;;;;32.00;29.67;;;;;;;;5093559;27;45485;-79
2023/09/11 00:27:54;;;;;;;;;27.67;26.00;;;;;;;;5089557;27;45777;-78
2023/09/11 00:30:19;;;;;;;;;24.67;22.33;;;;;;;;5093876;27;45669;-79
2023/09/11 00:32:44;;;;;;;;;26.00;20.33;;;;;;;;5093367;27;45892;-79
2023/09/11 00:35:10;;;;;;;;;26.00;21.33;;;;;;;;5093400;27;46319;-77
2023/09/11 00:37:35;;;;;;;;;23.67;22.00;;;;;;;;5074869;27;45589;-79
2023/09/11 00:40:00;;;;;;;;;20.33;19.00;;;;;;;;5093854;27;45370;-78
2023/09/11 00:42:26;;;;;;;;;28.00;24.33;;;;;;;;5093294;27;45546;-78
2023/09/11 00:44:52;;;;;;;;;30.67;23.33;;;;;;;;5093869;27;46817;-79
2023/09/11 00:47:17;;;;;;;;;28.00;23.00;;;;;;;;5094142;27;45790;-77
2023/09/11 00:49:43;;;;;;;;;28.00;27.67;;;;;;;;5075391;27;45449;-78
2023/09/11 00:52:08;;;;;;;;;31.00;27.33;;;;;;;;5093775;27;45362;-79
2023/09/11 00:54:33;;;;;;;;;21.33;21.33;;;;;;;;5094280;27;45961;-79
2023/09/11 00:56:59;;;;;;;;;23.67;23.67;;;;;;;;5094252;27;45424;-79
2023/09/11 00:59:24;;;;;;;;;22.00;22.00;;;;;;;;5094144;27;45846;-79
2023/09/11 01:01:49;;;;;;;;;24.00;23.00;;;;;;;;5083701;27;45720;-79
2023/09/11 01:04:15;;;;;;;;;18.33;17.00;;;;;;;;5093959;27;45538;-78
2023/09/11 01:06:40;;;;;;;;;24.67;20.00;;;;;;;;5074675;27;45574;-80
2023/09/11 01:09:06;;;;;;;;;23.67;20.00;;;;;;;;5094183;27;45915;-79
2023/09/11 01:11:31;;;;;;;;;19.00;19.00;;;;;;;;5094584;27;45412;-79
2023/09/11 01:13:57;;;;;;;;;22.00;21.33;;;;;;;;5072103;28;46307;-78
2023/09/11 01:16:30;;;;;;;;;23.00;19.00;;;;;;;;5086623;27;45644;-78
2023/09/11 01:19:10;;;;;;;;;27.33;24.00;;;;;;;;5093814;27;45813;-78
2023/09/11 01:21:39;;;;;;;;;25.33;24.67;;;;;;;;5092976;27;45377;-79
2023/09/11 01:24:23;;;;;;;;;25.00;22.67;;;;;;;;5093514;27;45883;-79
2023/09/11 01:27:01;;;;;;;;;24.33;22.00;;;;;;;;5081657;27;45785;-79
2023/09/11 01:29:27;;;;;;;;;22.33;22.33;;;;;;;;5093809;27;45547;-79
2023/09/11 01:31:55;;;;;;;;;21.67;21.67;;;;;;;;5075077;27;46010;-78
2023/09/11 01:34:20;;;;;;;;;25.33;22.33;;;;;;;;5075848;27;46271;-78
2023/09/11 01:36:45;;;;;;;;;26.67;25.00;;;;;;;;5087000;27;45773;-77
2023/09/11 01:39:11;;;;;;;;;31.67;26.00;;;;;;;;5088816;27;45396;-77
2023/09/11 01:41:40;;;;;;;;;28.00;25.67;;;;;;;;5093700;27;45463;-78
2023/09/11 01:44:18;;;;;;;;;29.67;28.33;;;;;;;;5074266;27;48093;-79
2023/09/11 01:46:45;;;;;;;;;22.00;22.00;;;;;;;;5073353;27;45690;-79
2023/09/11 01:49:12;;;;;;;;;27.67;26.00;;;;;;;;5092607;27;45460;-78
2023/09/11 01:51:38;;;;;;;;;22.67;19.67;;;;;;;;5092936;27;45700;-79
2023/09/11 01:54:04;;;;;;;;;23.33;22.00;;;;;;;;5088802;27;47891;-79
2023/09/11 01:56:29;;;;;;;;;27.00;21.00;;;;;;;;5071308;27;45922;-78
2023/09/11 01:58:56;;;;;;;;;19.67;19.67;;;;;;;;5092807;27;45708;-77
2023/09/11 02:01:21;;;;;;;;;16.67;15.67;;;;;;;;5082834;27;45742;-78
2023/09/11 02:03:46;;;;;;;;;19.00;12.00;;;;;;;;5079130;27;45690;-79
2023/09/11 02:06:12;;;;;;;;;18.67;15.67;;;;;;;;5074045;27;45718;-78
2023/09/11 02:08:37;;;;;;;;;15.33;15.00;;;;;;;;5074105;27;45418;-77
2023/09/11 02:11:02;;;;;;;;;19.00;16.67;;;;;;;;5086855;27;45856;-78
2023/09/11 02:13:27;;;;;;;;;21.33;16.67;;;;;;;;5075780;27;46969;-78
2023/09/11 02:15:53;;;;;;;;;19.33;18.33;;;;;;;;5081571;27;45879;-78
2023/09/11 02:18:18;;;;;;;;;22.33;20.33;;;;;;;;5076899;27;45768;-78
2023/09/11 02:20:47;;;;;;;;;18.67;17.67;;;;;;;;5083339;27;45869;-79
2023/09/11 02:23:13;;;;;;;;;18.00;17.33;;;;;;;;5072640;27;48280;-79
2023/09/11 02:25:38;;;;;;;;;19.67;18.67;;;;;;;;5091846;27;45894;-78
2023/09/11 02:28:03;;;;;;;;;24.33;19.00;;;;;;;;5089692;27;45608;-78
2023/09/11 02:30:28;;;;;;;;;19.00;16.67;;;;;;;;5090415;27;46526;-79
2023/09/11 02:32:54;;;;;;;;;19.33;18.67;;;;;;;;5074159;27;46055;-78
2023/09/11 02:35:19;;;;;;;;;20.00;17.33;;;;;;;;5092366;27;45413;-79
2023/09/11 02:37:44;;;;;;;;;18.33;16.33;;;;;;;;5090436;27;45590;-78
2023/09/11 02:40:10;;;;;;;;;18.67;18.67;;;;;;;;5083738;27;45886;-79
2023/09/11 02:42:35;;;;;;;;;17.33;15.00;;;;;;;;5054955;28;46262;-77
2023/09/11 02:45:00;;;;;;;;;21.33;19.00;;;;;;;;5075580;27;45870;-78
2023/09/11 02:47:25;;;;;;;;;27.67;21.33;;;;;;;;5070354;27;45858;-78
2023/09/11 02:49:50;;;;;;;;;21.67;19.67;;;;;;;;5059918;27;47151;-79
2023/09/11 02:52:16;;;;;;;;;20.33;18.33;;;;;;;;5091376;27;46412;-79
2023/09/11 02:54:41;;;;;;;;;16.33;16.33;;;;;;;;5091542;27;45926;-78
2023/09/11 02:57:06;;;;;;;;;18.00;17.33;;;;;;;;5088241;27;45410;-78
2023/09/11 02:59:33;;;;;;;;;17.33;13.00;;;;;;;;5082837;27;45886;-77
2023/09/11 03:01:58;;;;;;;;;17.67;16.00;;;;;;;;5072949;27;47896;-78
2023/09/11 03:04:24;;;;;;;;;18.33;18.33;;;;;;;;5086961;27;45412;-77
2023/09/11 03:06:49;;;;;;;;;18.00;17.00;;;;;;;;5091065;27;46363;-78
2023/09/11 03:09:14;;;;;;;;;16.67;16.67;;;;;;;;5091902;27;45538;-79
2023/09/11 03:11:39;;;;;;;;;18.00;18.00;;;;;;;;5091549;27;46321;-78
2023/09/11 03:14:05;;;;;;;;;20.33;19.33;;;;;;;;5072571;27;45331;-79
2023/09/11 03:16:30;;;;;;;;;18.67;16.33;;;;;;;;5073035;27;45340;-79
2023/09/11 03:18:55;;;;;;;;;20.00;19.67;;;;;;;;5091389;27;45579;-78
2023/09/11 03:21:20;;;;;;;;;16.67;13.67;;;;;;;;5090654;27;45524;-79
2023/09/11 03:23:46;;;;;;;;;26.67;20.67;;;;;;;;5091640;27;45747;-77
2023/09/11 03:26:12;;;;;;;;;21.67;17.67;;;;;;;;5092423;27;45431;-78
2023/09/11 03:28:37;;;;;;;;;21.00;15.67;;;;;;;;5091918;27;45604;-77
2023/09/11 03:31:03;;;;;;;;;19.00;17.33;;;;;;;;5061322;27;45536;-76
2023/09/11 03:33:28;;;;;;;;;23.00;17.00;;;;;;;;5091905;27;45810;-78
2023/09/11 03:35:53;;;;;;;;;19.67;19.33;;;;;;;;5092321;27;45784;-77
2023/09/11 03:38:19;;;;;;;;;21.67;19.33;;;;;;;;5091035;27;45841;-77
2023/09/11 03:40:46;;;;;;;;;22.67;21.67;;;;;;;;5090636;27;45546;-78
2023/09/11 03:43:11;;;;;;;;;24.00;18.67;;;;;;;;5091339;27;45735;-79
2023/09/11 03:45:36;;;;;;;;;16.33;14.67;;;;;;;;5072535;27;45727;-77
2023/09/11 03:48:02;;;;;;;;;20.33;18.67;;;;;;;;5085064;27;45528;-79
2023/09/11 03:50:27;;;;;;;;;17.00;16.00;;;;;;;;5086662;27;45811;-82
2023/09/11 03:52:52;;;;;;;;;23.33;20.33;;;;;;;;5091149;27;45786;-76
2023/09/11 03:55:18;;;;;;;;;23.00;23.00;;;;;;;;5092205;27;45568;-80
2023/09/11 03:57:43;;;;;;;;;15.33;14.33;;;;;;;;5076292;27;46280;-81
2023/09/11 04:00:09;;;;;;;;;16.00;14.00;;;;;;;;5069940;27;47253;-79
2023/09/11 04:02:34;;;;;;;;;23.67;19.00;;;;;;;;5093461;27;46362;-80
2023/09/11 04:04:59;;;;;;;;;16.00;15.33;;;;;;;;5095890;27;45402;-79
2023/09/11 04:07:24;;;;;;;;;16.33;15.33;;;;;;;;5095327;27;45702;-80
2023/09/11 04:09:50;;;;;;;;;16.00;15.67;;;;;;;;5094353;27;45729;-79
2023/09/11 04:12:16;;;;;;;;;13.67;12.67;;;;;;;;5069665;27;45732;-80
2023/09/11 04:14:42;;;;;;;;;24.00;20.33;;;;;;;;5075881;27;45682;-78
2023/09/11 04:17:10;;;;;;;;;27.00;24.67;;;;;;;;5075386;27;45896;-81
2023/09/11 04:19:35;;;;;;;;;18.33;13.67;;;;;;;;5095391;27;45481;-82
2023/09/11 04:22:01;;;;;;;;;15.67;15.00;;;;;;;;5093890;27;45555;-85
2023/09/11 04:24:26;;;;;;;;;14.00;14.00;;;;;;;;5075531;27;45904;-84
2023/09/11 04:26:52;;;;;;;;;17.00;14.00;;;;;;;;5092865;27;45372;-83
2023/09/11 04:29:17;;;;;;;;;25.33;22.00;;;;;;;;5096869;27;46308;-85
2023/09/11 04:31:42;;;;;;;;;15.00;13.33;;;;;;;;5079569;27;45731;-85
2023/09/11 04:34:08;;;;;;;;;24.67;23.67;;;;;;;;5080717;27;45535;-84
2023/09/11 04:36:33;;;;;;;;;18.33;14.33;;;;;;;;5097622;27;45435;-81
2023/09/11 04:38:58;;;;;;;;;13.00;12.00;;;;;;;;5097934;27;46703;-82
2023/09/11 04:41:24;;;;;;;;;19.67;16.00;;;;;;;;5098389;27;45726;-84
2023/09/11 04:43:49;;;;;;;;;27.00;23.67;;;;;;;;5096465;27;45634;-83
2023/09/11 04:46:16;;;;;;;;;18.33;15.33;;;;;;;;5099255;27;45579;-84
2023/09/11 04:48:42;;;;;;;;;19.33;18.33;;;;;;;;5081313;27;47142;-84
2023/09/11 04:51:07;;;;;;;;;16.00;15.33;;;;;;;;5101873;27;45507;-84
2023/09/11 04:53:33;;;;;;;;;19.33;17.67;;;;;;;;5085675;27;45319;-85
2023/09/11 04:56:00;;;;;;;;;32.67;31.00;;;;;;;;5111595;27;45202;-83
2023/09/11 04:58:25;;;;;;;;;20.33;16.67;;;;;;;;5112866;27;45628;-83
2023/09/11 05:00:54;;;;;;;;;21.33;18.67;;;;;;;;5107788;27;45306;-81
2023/09/11 05:03:19;;;;;;;;;17.33;15.67;;;;;;;;5106980;27;44898;-86
2023/09/11 05:05:45;;;;;;;;;16.00;15.00;;;;;;;;5102199;27;45331;-84
2023/09/11 05:08:10;;;;;;;;;19.00;16.00;;;;;;;;5088880;27;46715;-83
2023/09/11 05:10:39;;;;;;;;;18.67;18.67;;;;;;;;5111449;27;45439;-85
2023/09/11 05:13:04;;;;;;;;;22.00;18.33;;;;;;;;5107954;27;45629;-85
2023/09/11 05:15:30;;;;;;;;;15.33;15.33;;;;;;;;5098081;27;45464;-84
2023/09/11 05:17:55;;;;;;;;;16.67;15.67;;;;;;;;5098210;27;45440;-85
2023/09/11 05:20:21;;;;;;;;;16.33;14.67;;;;;;;;5078199;27;45582;-85
2023/09/11 05:22:46;;;;;;;;;16.67;15.00;;;;;;;;5101438;27;45452;-85
2023/09/11 05:25:11;;;;;;;;;14.33;14.33;;;;;;;;5072312;27;46384;-85
2023/09/11 05:27:37;;;;;;;;;16.33;15.67;;;;;;;;5081812;27;45524;-83
2023/09/11 05:30:02;;;;;;;;;19.00;15.33;;;;;;;;5086409;27;45426;-84
2023/09/11 05:32:33;;;;;;;;;12.00;12.00;;;;;;;;5064828;27;45279;-87
2023/09/11 05:34:59;;;;;;;;;14.33;14.33;;;;;;;;5061579;28;45213;-87
2023/09/11 05:37:30;;;;;;;;;17.67;14.33;;;;;;;;5077870;28;45293;-87
2023/09/11 05:43:14;;;;;;;;;18.67;13.33;;;;;;;;5055929;28;45359;-84
2023/09/11 05:45:44;;;;;;;;;17.00;14.00;;;;;;;;5068368;28;46038;-89
2023/09/11 05:48:11;;;;;;;;;16.00;15.33;;;;;;;;5078429;28;46582;-87
2023/09/11 05:50:37;;;;;;;;;20.33;17.00;;;;;;;;5063187;28;44748;-87
2023/09/11 05:53:03;;;;;;;;;18.00;16.67;;;;;;;;5057169;28;45696;-86
2023/09/11 05:58:15;;;;;;;;;18.00;16.67;;;;;;;;5074109;28;45798;-86
2023/09/11 06:00:51;;;;;;;;;21.67;19.67;;;;;;;;5077482;27;45447;-84
2023/09/11 06:03:17;;;;;;;;;19.00;18.33;;;;;;;;5060909;28;45422;-88
2023/09/11 06:05:43;;;;;;;;;19.00;17.33;;;;;;;;5079693;28;46750;-86
2023/09/11 06:08:08;;;;;;;;;16.33;15.33;;;;;;;;5073638;28;46695;-86
2023/09/11 06:10:48;;;;;;;;;20.67;19.67;;;;;;;;5060597;28;45468;-86
2023/09/11 06:13:53;;;;;;;;;;;;;;;;;;;;;
2023/09/11 06:16:31;;;;;;;;;19.00;16.00;;;;;;;;5049903;28;74978;-86
2023/09/11 06:19:37;;;;;;;;;;;;;;;;;;;;;
2023/09/11 06:22:14;;;;;;;;;22.33;17.67;;;;;;;;5046624;28;45465;-86
2023/09/11 06:24:59;;;;;;;;;16.33;16.33;;;;;;;;5062599;28;45268;-85
2023/09/11 06:27:24;;;;;;;;;18.67;17.33;;;;;;;;5057360;28;44858;-79
2023/09/11 06:29:49;;;;;;;;;21.33;15.67;;;;;;;;5067868;27;45738;-83
2023/09/11 06:32:18;;;;;;;;;18.67;15.00;;;;;;;;5069210;27;45513;-83
2023/09/11 06:34:43;;;;;;;;;20.67;14.33;;;;;;;;5075963;27;45767;-81
2023/09/11 06:37:26;;;;;;;;;17.00;17.00;;;;;;;;5092145;27;45790;-82
2023/09/11 06:39:52;;;;;;;;;24.67;17.67;;;;;;;;5078910;27;48185;-83
2023/09/11 06:42:21;;;;;;;;;18.67;15.33;;;;;;;;5076498;27;45371;-85
2023/09/11 06:44:47;;;;;;;;;16.67;15.67;;;;;;;;5096263;27;45643;-81
2023/09/11 06:47:12;;;;;;;;;20.00;18.67;;;;;;;;5075607;27;45689;-84
2023/09/11 06:49:37;;;;;;;;;24.00;14.33;;;;;;;;5096990;27;46142;-83
2023/09/11 06:52:03;;;;;;;;;16.67;13.33;;;;;;;;5075882;27;45505;-85
2023/09/11 06:54:28;;;;;;;;;27.33;21.67;;;;;;;;5076452;27;45872;-85
2023/09/11 06:56:54;;;;;;;;;22.33;18.00;;;;;;;;5074733;27;46076;-77
2023/09/11 06:59:19;;;;;;;;;15.67;15.67;;;;;;;;5068741;27;48166;-82
2023/09/11 07:01:45;;;;;;;;;17.00;15.33;;;;;;;;5100149;27;45667;-81
2023/09/11 07:04:11;;;;;;;;;18.67;18.33;;;;;;;;5088868;27;45390;-83
2023/09/11 07:06:39;;;;;;;;;20.00;15.67;;;;;;;;5080749;27;46128;-82
2023/09/11 07:09:09;;;;;;;;;19.67;18.33;;;;;;;;5102362;27;45584;-82
2023/09/11 07:11:34;;;;;;;;;20.00;17.00;;;;;;;;5096010;27;45620;-83
2023/09/11 07:13:59;;;;;;;;;19.33;16.33;;;;;;;;5087431;27;45453;-83
2023/09/11 07:16:25;;;;;;;;;17.00;16.33;;;;;;;;5092672;27;45688;-84
2023/09/11 07:18:51;;;;;;;;;18.33;16.33;;;;;;;;5078980;27;46134;-84
2023/09/11 07:21:16;;;;;;;;;12.33;12.00;;;;;;;;5067802;27;45300;-82
2023/09/11 07:23:41;;;;;;;;;24.00;22.00;;;;;;;;5092748;27;45338;-82
2023/09/11 07:26:06;;;;;;;;;9.75;9.75;;;;;;;;5089253;27;45406;-83
2023/09/11 07:28:33;;;;;;;;;8.33;7.33;;;;;;;;5093475;27;47071;-81
2023/09/11 07:30:58;;;;;;;;;10.50;10.00;;;;;;;;5084751;27;45891;-82
2023/09/11 07:33:24;;;;;;;;;14.33;12.00;;;;;;;;5102269;27;45487;-83
2023/09/11 07:35:49;;;;;;;;;12.67;11.33;;;;;;;;5084460;27;45738;-85
2023/09/11 07:38:14;;;;;;;;;9.67;9.33;;;;;;;;5105150;27;45665;-83
2023/09/11 07:40:40;;;;;;;;;13.33;11.67;;;;;;;;5097402;27;45562;-83
2023/09/11 07:43:05;;;;;;;;;11.67;11.67;;;;;;;;5102562;27;45620;-85
2023/09/11 07:45:30;;;;;;;;;12.00;12.00;;;;;;;;5081473;27;46029;-82
2023/09/11 07:47:56;;;;;;;;;17.67;14.00;;;;;;;;5104958;27;45422;-84
2023/09/11 07:50:21;;;;;;;;;13.67;11.67;;;;;;;;5078291;27;45491;-85
2023/09/11 07:52:46;;;;;;;;;14.33;12.33;;;;;;;;5106465;27;45595;-82
2023/09/11 07:55:12;;;;;;;;;15.33;13.33;;;;;;;;5104470;27;45505;-84
2023/09/11 07:57:40;;;;;;;;;13.33;13.33;;;;;;;;5085173;27;46317;-83
2023/09/11 08:00:06;;;;;;;;;12.25;12.25;;;;;;;;5101403;27;45306;-85
2023/09/11 08:02:33;;;;;;;;;13.75;12.00;;;;;;;;5096753;27;45592;-84
2023/09/11 08:04:58;;;;;;;;;14.00;13.00;;;;;;;;5087421;27;45601;-84
2023/09/11 08:07:24;;;;;;;;;13.50;12.00;;;;;;;;5099375;27;45688;-83
2023/09/11 08:09:51;;;;;;;;;10.50;9.25;;;;;;;;5104330;27;45559;-82
2023/09/11 08:12:16;;;;;;;;;12.50;12.25;;;;;;;;5103121;27;45721;-84
2023/09/11 08:14:43;;;;;;;;;16.67;13.67;;;;;;;;5087561;27;47525;-82
2023/09/11 08:17:08;;;;;;;;;15.00;14.00;;;;;;;;5104048;27;45804;-83
2023/09/11 08:19:33;;;;;;;;;15.00;13.00;;;;;;;;5088121;27;45503;-85
2023/09/11 08:21:58;;;;;;;;;13.75;10.75;;;;;;;;5101579;27;45472;-82
2023/09/11 08:24:24;;;;;;;;;19.33;16.00;;;;;;;;5083369;27;45407;-83
2023/09/11 08:26:49;;;;;;;;;18.67;17.33;;;;;;;;5101320;27;45354;-81
2023/09/11 08:29:15;;;;;;;;;22.00;17.33;;;;;;;;5101079;27;45468;-85
2023/09/11 08:31:41;;;;;;;;;19.33;15.67;;;;;;;;5087058;27;45461;-82
2023/09/11 08:34:06;;;;;;;;;13.50;12.50;;;;;;;;5085955;27;45830;-83
2023/09/11 08:36:31;;;;;;;;;14.00;13.00;;;;;;;;5093113;27;45351;-82
2023/09/11 08:38:57;;;;;;;;;15.00;12.00;;;;;;;;5088835;27;45409;-84
2023/09/11 08:41:23;;;;;;;;;14.67;12.33;;;;;;;;5099300;27;45701;-85
2023/09/11 08:43:49;;;;;;;;;13.00;12.25;;;;;;;;5079718;27;45976;-83
2023/09/11 08:46:18;;;;;;;;;16.33;15.67;;;;;;;;5083210;27;47202;-85
2023/09/11 08:48:44;;;;;;;;;12.25;10.00;;;;;;;;5081736;27;45446;-85
2023/09/11 08:51:11;;;;;;;;;11.75;9.50;;;;;;;;5100598;27;45420;-85
2023/09/11 08:53:38;;;;;;;;;12.00;9.33;;;;;;;;5103811;27;45533;-83
2023/09/11 08:56:04;;;;;;;;;16.00;13.00;;;;;;;;5100947;27;45658;-84
2023/09/11 08:58:31;;;;;;;;;14.33;14.00;;;;;;;;5098213;27;45314;-82
2023/09/11 09:00:57;;;;;;;;;12.33;11.00;;;;;;;;5095603;27;45699;-85
2023/09/11 09:03:23;;;;;;;;;12.50;12.00;;;;;;;;5069192;27;45779;-83
2023/09/11 09:05:49;;;;;;;;;11.50;10.25;;;;;;;;5097468;27;46566;-85
2023/09/11 09:08:15;;;;;;;;;10.50;9.25;;;;;;;;5097467;27;45710;-83
2023/09/11 09:10:41;;;;;;;;;9.33;7.67;;;;;;;;5100276;27;45386;-83
2023/09/11 09:13:10;;;;;;;;;10.00;8.00;;;;;;;;5087002;27;45365;-88
2023/09/11 09:15:40;;;;;;;;;9.50;9.50;;;;;;;;5096571;27;45798;-85
2023/09/11 09:18:07;;;;;;;;;8.00;7.25;;;;;;;;5070017;27;45379;-85
2023/09/11 09:20:33;;;;;;;;;12.75;10.00;;;;;;;;5072554;27;45769;-84
2023/09/11 09:22:59;;;;;;;;;6.25;5.00;;;;;;;;5102390;27;45326;-83
2023/09/11 09:25:25;;;;;;;;;9.50;9.50;;;;;;;;5084035;27;45501;-83
2023/09/11 09:27:50;;;;;;;;;8.75;8.75;;;;;;;;5100139;27;45827;-84
2023/09/11 09:30:22;;;;;;;;;14.00;11.75;;;;;;;;5100907;27;45512;-83
2023/09/11 09:32:49;;;;;;;;;9.50;9.50;;;;;;;;5085797;27;46250;-85
2023/09/11 09:35:16;;;;;;;;;14.50;10.25;;;;;;;;5086371;27;46906;-85
2023/09/11 09:37:48;;;;;;;;;9.25;8.25;;;;;;;;5086940;27;45899;-84
2023/09/11 09:40:13;;;;;;;;;15.25;12.25;;;;;;;;5092959;27;45362;-84
2023/09/11 09:42:42;;;;;;;;;12.67;11.67;;;;;;;;5109802;27;45752;-84
2023/09/11 09:45:08;;;;;;;;;11.00;11.00;;;;;;;;5085103;27;47361;-85
2023/09/11 09:47:33;;;;;;;;;14.00;14.00;;;;;;;;5101188;27;45442;-85
2023/09/11 09:50:00;;;;;;;;;11.50;10.50;;;;;;;;5093623;27;45683;-87
2023/09/11 09:52:26;;;;;;;;;16.33;15.33;;;;;;;;5098518;27;45436;-86
2023/09/11 09:54:56;;;;;;;;;15.50;14.00;;;;;;;;5082974;27;46903;-85
2023/09/11 09:57:22;;;;;;;;;10.25;10.25;;;;;;;;5083102;27;45574;-85
2023/09/11 09:59:50;;;;;;;;;16.25;12.00;;;;;;;;5102664;27;45590;-84
2023/09/11 10:02:21;;;;;;;;;14.50;11.50;;;;;;;;5081549;27;45555;-84
2023/09/11 10:04:50;;;;;;;;;13.33;11.67;;;;;;;;5080930;27;46386;-86
2023/09/11 10:07:15;;;;;;;;;14.00;13.25;;;;;;;;5084774;27;45620;-81
2023/09/11 10:09:40;;;;;;;;;7.00;6.00;;;;;;;;5094886;27;45377;-84
2023/09/11 10:12:09;;;;;;;;;10.00;10.00;;;;;;;;5094033;27;45378;-85
2023/09/11 10:14:34;;;;;;;;;12.75;11.50;;;;;;;;5099343;27;46572;-85
2023/09/11 10:17:00;;;;;;;;;13.50;12.25;;;;;;;;5090478;27;45668;-83
2023/09/11 10:19:28;;;;;;;;;14.75;11.25;;;;;;;;5110077;27;44823;-85
2023/09/11 10:21:53;;;;;;;;;11.50;10.25;;;;;;;;5080174;27;47019;-85
2023/09/11 10:24:18;;;;;;;;;9.00;9.00;;;;;;;;5095921;27;45523;-81
2023/09/11 10:26:46;;;;;;;;;11.50;8.50;;;;;;;;5076681;27;45475;-77
2023/09/11 10:29:22;;;;;;;;;8.25;8.25;;;;;;;;5092032;27;45497;-76
2023/09/11 10:31:58;;;;;;;;;9.75;8.75;;;;;;;;5085379;27;45695;-78
2023/09/11 10:34:25;;;;;;;;;10.25;10.00;;;;;;;;5092872;27;45857;-79
2023/09/11 10:36:55;;;;;;;;;8.50;8.50;;;;;;;;5092664;27;45780;-79
2023/09/11 10:39:20;;;;;;;;;11.25;9.00;;;;;;;;5071278;27;45850;-78
2023/09/11 10:41:46;;;;;;;;;10.50;9.25;;;;;;;;5088640;27;45785;-80
2023/09/11 10:44:11;;;;;;;;;11.25;9.75;;;;;;;;5090663;27;46026;-80
2023/09/11 10:46:38;;;;;;;;;12.00;8.00;;;;;;;;5093638;27;45661;-82
2023/09/11 10:49:17;;;;;;;;;8.25;8.25;;;;;;;;5090761;27;45537;-81
2023/09/11 10:51:42;;;;;;;;;11.50;9.00;;;;;;;;5071584;27;45889;-81
2023/09/11 10:54:10;;;;;;;;;9.00;8.00;;;;;;;;5092360;27;46643;-79
2023/09/11 10:56:36;;;;;;;;;8.50;8.25;;;;;;;;5074966;27;45355;-80
2023/09/11 10:59:02;;;;;;;;;11.00;9.25;;;;;;;;5073875;27;45873;-77
2023/09/11 11:01:27;;;;;;;;;8.50;6.50;;;;;;;;5092663;27;45791;-80
2023/09/11 11:03:53;;;;;;;;;6.75;6.25;;;;;;;;5083270;27;46111;-79
2023/09/11 11:06:21;;;;;;;;;8.00;6.75;;;;;;;;5092443;27;45363;-82
2023/09/11 11:08:47;;;;;;;;;7.75;5.50;;;;;;;;5083425;27;45551;-82
2023/09/11 11:11:21;;;;;;;;;6.25;6.25;;;;;;;;5090268;27;45739;-80
2023/09/11 11:14:05;;;;;;;;;4.75;4.75;;;;;;;;5084607;27;45679;-79
2023/09/11 11:16:30;;;;;;;;;7.00;5.00;;;;;;;;5093417;27;45478;-81
2023/09/11 11:18:57;;;;;;;;;7.00;5.50;;;;;;;;5094046;27;45684;-81
2023/09/11 11:21:22;;;;;;;;;5.50;5.00;;;;;;;;5067149;27;45840;-80
2023/09/11 11:23:53;;;;;;;;;5.50;4.50;;;;;;;;5091974;27;45878;-81
2023/09/11 11:26:19;;;;;;;;;4.75;4.75;;;;;;;;5072973;27;45987;-78
2023/09/11 11:28:45;;;;;;;;;6.00;5.00;;;;;;;;5075818;27;45339;-81
2023/09/11 11:31:18;;;;;;;;;5.00;5.00;;;;;;;;5091582;27;45795;-80
2023/09/11 11:33:45;;;;;;;;;5.25;5.25;;;;;;;;5073671;27;45471;-78
2023/09/11 11:36:11;;;;;;;;;4.00;4.00;;;;;;;;5090430;27;45472;-79
2023/09/11 11:38:37;;;;;;;;;4.75;3.75;;;;;;;;5095543;27;45392;-80
2023/09/11 11:41:03;;;;;;;;;4.50;4.00;;;;;;;;5074577;27;47492;-81
2023/09/11 11:43:28;;;;;;;;;4.50;4.50;;;;;;;;5093719;27;45992;-81
2023/09/11 11:49:51;;;;;;;;;4.75;4.75;;;;;;;;5046450;28;45843;-90
2023/09/11 11:52:33;;;;;;;;;;;;;;;;;;;;;
2023/09/11 11:55:33;;;;;;;;;4.50;4.50;;;;;;;;4987200;28;45533;-89
2023/09/11 11:58:19;;;;;;;;;4.00;3.00;;;;;;;;4982023;28;45476;-88
2023/09/11 12:01:17;;;;;;;;;5.00;5.00;;;;;;;;4980576;28;45529;-85
2023/09/11 12:07:45;;;;;;;;;3.00;3.00;;;;;;;;4947265;28;45355;-91
2023/09/11 12:10:36;;;;;;;;;5.75;5.00;;;;;;;;4945658;28;44878;-88
2023/09/11 12:13:34;;;;;;;;;6.50;4.50;;;;;;;;4930952;28;45541;-88
2023/09/11 12:16:01;;;;;;;;;1.00;1.00;;;;;;;;4906149;28;45748;-88
2023/09/11 12:18:39;;;;;;;;;3.50;3.50;;;;;;;;4932157;28;45595;-84
2023/09/11 12:21:13;;;;;;;;;5.00;5.00;;;;;;;;4961715;28;45483;-86
2023/09/11 12:23:54;;;;;;;;;5.25;4.00;;;;;;;;4965096;28;45495;-87
2023/09/11 12:26:49;;;;;;;;;5.00;4.00;;;;;;;;4968800;28;45602;-88
2023/09/11 12:29:35;;;;;;;;;2.00;2.00;;;;;;;;5032201;27;45462;-88
2023/09/11 12:32:10;;;;;;;;;5.75;4.75;;;;;;;;5086805;27;45621;-87
2023/09/11 12:34:44;;;;;;;;;5.50;4.75;;;;;;;;5086242;28;45500;-89
2023/09/11 12:40:20;;;;;;;;;4.00;3.00;;;;;;;;5078393;28;45470;-86
2023/09/11 12:42:54;;;;;;;;;4.00;4.00;;;;;;;;5086395;27;45449;-88
2023/09/11 12:45:23;;;;;;;;;5.25;4.50;;;;;;;;5083925;28;45396;-88
2023/09/11 12:48:33;;;;;;;;;5.50;3.75;;;;;;;;5098761;27;46678;-90
2023/09/11 12:51:14;;;;;;;;;;;;;;;;;;;;;
2023/09/11 12:54:22;;;;;;;;;6.75;5.25;;;;;;;;5080217;28;73307;-88
2023/09/11 12:56:57;;;;;;;;;6.50;4.00;;;;;;;;5067408;28;45447;-90
2023/09/11 13:00:03;;;;;;;;;6.50;2.25;;;;;;;;5078252;28;45211;-92
2023/09/11 13:02:32;;;;;;;;;7.00;5.75;;;;;;;;5079221;28;46172;-85
2023/09/11 13:04:58;;;;;;;;;4.75;4.25;;;;;;;;5070688;28;45488;-87
2023/09/11 13:07:23;;;;;;;;;5.00;4.00;;;;;;;;5074729;28;45321;-87
2023/09/11 13:10:14;;;;;;;;;9.25;6.50;;;;;;;;5076818;27;44848;-88
2023/09/11 13:12:47;;;;;;;;;8.00;6.33;;;;;;;;5072335;28;47012;-86
2023/09/11 13:15:14;;;;;;;;;6.00;6.00;;;;;;;;5070346;27;45540;-86
2023/09/11 13:17:39;;;;;;;;;5.50;4.75;;;;;;;;5068271;28;45506;-84
2023/09/11 13:20:05;;;;;;;;;3.75;3.75;;;;;;;;5075310;28;46612;-83
2023/09/11 13:22:31;;;;;;;;;4.50;3.00;;;;;;;;5080652;27;45404;-84
2023/09/11 13:24:56;;;;;;;;;11.25;7.75;;;;;;;;5081817;28;45390;-86
2023/09/11 13:27:22;;;;;;;;;8.00;6.00;;;;;;;;5082195;28;45686;-85
2023/09/11 13:29:47;;;;;;;;;4.00;4.00;;;;;;;;5087950;27;47414;-88
2023/09/11 13:32:13;;;;;;;;;8.75;6.00;;;;;;;;5103859;27;45251;-83
2023/09/11 13:34:38;;;;;;;;;4.00;3.25;;;;;;;;5093602;27;45627;-82
2023/09/11 13:37:09;;;;;;;;;4.00;2.75;;;;;;;;5086728;27;45485;-88
2023/09/11 13:40:25;;;;;;;;;7.25;7.25;;;;;;;;5089385;27;45884;-92
2023/09/11 13:42:50;;;;;;;;;4.00;4.00;;;;;;;;5048540;27;45632;-86
2023/09/11 13:45:15;;;;;;;;;6.00;6.00;;;;;;;;5098406;27;44848;-85
2023/09/11 13:47:40;;;;;;;;;3.25;3.00;;;;;;;;5105905;27;45232;-86
2023/09/11 13:50:06;;;;;;;;;3.00;3.00;;;;;;;;5103820;27;45490;-85
2023/09/11 13:52:31;;;;;;;;;7.00;3.75;;;;;;;;5083043;27;47059;-85
2023/09/11 13:54:57;;;;;;;;;2.50;2.50;;;;;;;;5083998;27;45484;-86
2023/09/11 13:57:22;;;;;;;;;4.00;4.00;;;;;;;;5082479;27;45370;-83
2023/09/11 13:59:49;;;;;;;;;2.75;2.75;;;;;;;;5104106;27;45737;-85
2023/09/11 14:02:14;;;;;;;;;3.50;2.25;;;;;;;;5084318;27;47199;-83
2023/09/11 14:04:39;;;;;;;;;5.25;4.25;;;;;;;;5103273;27;45352;-86
2023/09/11 14:07:05;;;;;;;;;4.00;3.00;;;;;;;;5077307;27;45332;-85
2023/09/11 14:09:30;;;;;;;;;4.00;4.00;;;;;;;;5099894;27;45245;-84
2023/09/11 14:11:56;;;;;;;;;2.50;2.50;;;;;;;;5082919;27;45892;-84
2023/09/11 14:14:21;;;;;;;;;3.25;3.25;;;;;;;;5100477;27;45773;-82
2023/09/11 14:16:47;;;;;;;;;5.50;5.50;;;;;;;;5081430;27;45713;-84
2023/09/11 14:19:13;;;;;;;;;6.00;4.25;;;;;;;;5104770;27;45435;-83
2023/09/11 14:21:38;;;;;;;;;5.50;4.00;;;;;;;;5083971;28;46874;-84
2023/09/11 14:24:04;;;;;;;;;5.00;5.00;;;;;;;;5111035;27;45385;-82
2023/09/11 14:26:29;;;;;;;;;6.75;6.00;;;;;;;;5105561;27;45898;-83
2023/09/11 14:28:55;;;;;;;;;4.75;4.75;;;;;;;;5104841;27;45844;-82
2023/09/11 14:31:20;;;;;;;;;5.75;3.75;;;;;;;;5095487;27;45752;-82
2023/09/11 14:33:46;;;;;;;;;5.50;5.50;;;;;;;;5097882;27;45675;-81
2023/09/11 14:36:11;;;;;;;;;6.00;6.00;;;;;;;;5095500;27;45358;-81
2023/09/11 14:38:36;;;;;;;;;8.00;5.25;;;;;;;;5099967;27;45531;-81
2023/09/11 14:41:05;;;;;;;;;5.50;5.50;;;;;;;;5084607;27;46991;-84
2023/09/11 14:43:30;;;;;;;;;6.75;5.50;;;;;;;;5075862;27;45473;-81
2023/09/11 14:45:55;;;;;;;;;3.75;3.00;;;;;;;;5074288;27;45383;-81
2023/09/11 14:48:20;;;;;;;;;5.75;5.00;;;;;;;;5093424;27;45668;-83
2023/09/11 14:50:46;;;;;;;;;9.75;5.50;;;;;;;;5068683;28;47344;-82